Terminal Aerodrome Forecast
Issued by NWS

Home | Current Version | Previous Version | Text Only | Print | Product List | Glossary On
Versions: 1 2 3 4 5 6 7 8 9 10 11 12
000
FTUS44 KLZK 281721
TAFLIT
TAF
KLIT 281721Z 2818/2918 23007KT P6SM SKC
     FM282100 30009KT P6SM SKC
     FM290100 30006KT P6SM SKC
     FM291600 33006KT P6SM SKC=

USA.gov is the U.S. government's official web portal to all federal, state and local government web resources and services.